Huvudsida
METAR-TAF:

METAR-TAF

Flygplatser :

Kimberley, Sydafrika

latitud: 28-48S, longitud: 024-46E, höjd: 1198 m

Aktuellt väderrapport

Denna rapport gjordes för 39 minuter sedan, klockan 11:00 UTC
Vind 6 kt från nord
Temperatur 24°C
Fuktighet 44%
Tryck 1026 hPa
Sikt 10 km eller mer
Inga moln under 1 500 m eller inga cumulonimbus

METAR: FAKM 181100Z 35006KT CAVOK 24/11 Q1026

Tid: 13:39 (11:39 UTC)

Väderprognos

Denna rapport gjordes för 2 timmar och 39 minuter sedan, klockan 09:00 UTC
Prognos gäller från 18 kl. 10 UTC till 18 kl. 18 UTC
Vind 8 kt från nord
Sikt 10 km eller mer
Inga moln under 1 500 m eller inga cumulonimbus

TAF: FAKM 180900Z 1810/1818 01008KT CAVOK TX26/1813Z TN17/1818Z

Aktuella väderrapporter och prognoser från 4000 flygplatser (METAR- och TAF-rapporter).

De tillgängliga stationerna syns som gula och röda prickar på kartan.

För musen över prickarna för att se namnen på stationerna.

Klicka sedan för att få väderrapporter och prognoser.

För att ändra kartan: Klicka på de gröna knapparna med ett svart kors på för att zooma in; den gröna knappen med ett streck på för att zooma ut; eller på de gröna pilarna för angränsande kartor.


METAR-TAF: